Time;durP1;ratioP1;P1;durP2;ratioP2;P2;SDS_P1;SDS_P2;PMS_P1;PMS_P2;Temp;Humidity;BMP_temperature;BMP_pressure;BME280_temperature;BME280_humidity;BME280_pressure;Samples;Min_cycle;Max_cycle;Signal;HPM_P1;HPM_P2
2021/12/19 00:01:08;;;;;;;0.20;0.20;;;;;;;5.58;100.00;102197.69;4986141;28;20507;-84
2021/12/19 00:03:51;;;;;;;0.20;0.20;;;;;;;5.56;100.00;102194.34;5018890;28;20050;-84
2021/12/19 00:09:10;;;;;;;0.20;0.20;;;;;;;5.62;100.00;102201.63;4988339;28;20050;-84
2021/12/19 00:11:44;;;;;;;0.22;0.22;;;;;;;5.59;100.00;102200.19;4989700;28;20059;-84
2021/12/19 00:14:19;;;;;;;0.30;0.30;;;;;;;5.52;100.00;102179.63;5002081;28;20054;-86
2021/12/19 00:16:55;;;;;;;0.20;0.20;;;;;;;5.56;100.00;102184.38;4988283;28;20066;-85
2021/12/19 00:19:23;;;;;;;0.30;0.30;;;;;;;5.55;100.00;102177.34;4988141;28;20046;-85
2021/12/19 00:21:51;;;;;;;0.20;0.20;;;;;;;5.57;100.00;102175.25;4992010;28;20054;-85
2021/12/19 00:24:25;;;;;;;0.20;0.20;;;;;;;5.56;100.00;102172.75;4988892;28;20138;-83
2021/12/19 00:26:53;;;;;;;0.20;0.20;;;;;;;5.55;100.00;102171.09;4992303;28;20050;-84
2021/12/19 00:29:27;;;;;;;0.20;0.20;;;;;;;5.48;100.00;102162.16;4987181;28;20411;-85
2021/12/19 00:32:01;;;;;;;0.20;0.20;;;;;;;5.49;100.00;102167.34;4994080;28;20037;-84
2021/12/19 00:34:35;;;;;;;0.25;0.25;;;;;;;5.49;100.00;102159.25;4992016;28;20046;-83
2021/12/19 00:37:08;;;;;;;0.20;0.20;;;;;;;5.51;100.00;102151.78;4997902;28;20057;-84
2021/12/19 00:39:41;;;;;;;0.13;0.13;;;;;;;5.49;100.00;102150.34;4998495;28;20046;-86
2021/12/19 00:42:09;;;;;;;0.30;0.30;;;;;;;5.52;100.00;102161.53;4998328;28;20054;-84
2021/12/19 00:44:44;;;;;;;0.30;0.30;;;;;;;5.51;100.00;102161.75;4996116;28;20054;-84
2021/12/19 00:47:17;;;;;;;0.30;0.30;;;;;;;5.40;100.00;102131.66;4989379;28;20495;-85
2021/12/19 00:49:45;;;;;;;0.30;0.30;;;;;;;5.42;100.00;102139.53;5016918;28;20057;-85
2021/12/19 00:52:18;;;;;;;0.30;0.30;;;;;;;5.44;100.00;102142.84;4986742;28;20392;-86
2021/12/19 00:54:47;;;;;;;0.30;0.30;;;;;;;5.48;100.00;102127.88;4991926;28;20059;-85
2021/12/19 00:57:20;;;;;;;0.20;0.20;;;;;;;5.47;100.00;102120.84;4988352;28;20046;-83
2021/12/19 00:59:53;;;;;;;0.20;0.20;;;;;;;5.41;100.00;102113.56;4989769;28;20039;-85
2021/12/19 01:02:22;;;;;;;0.30;0.30;;;;;;;5.54;100.00;102129.75;4990736;28;20046;-85
2021/12/19 01:04:56;;;;;;;0.28;0.28;;;;;;;5.45;100.00;102094.06;4986422;28;20119;-85
2021/12/19 01:07:24;;;;;;;0.30;0.30;;;;;;;5.48;100.00;102097.38;4987643;28;20046;-85
2021/12/19 01:09:52;;;;;;;0.30;0.30;;;;;;;5.48;100.00;102100.06;5001045;28;20054;-85
2021/12/19 01:12:21;;;;;;;0.22;0.22;;;;;;;5.47;100.00;102099.25;4992083;28;20050;-84
2021/12/19 01:14:54;;;;;;;0.30;0.30;;;;;;;5.48;100.00;102087.38;4995726;28;20061;-85
2021/12/19 01:17:29;;;;;;;0.20;0.20;;;;;;;5.54;100.00;102120.84;4983532;28;20505;-84
2021/12/19 01:20:03;;;;;;;0.28;0.28;;;;;;;5.45;100.00;102112.97;5018976;28;20051;-85
2021/12/19 01:22:36;;;;;;;0.30;0.30;;;;;;;5.55;100.00;102115.22;4988013;28;20054;-85
2021/12/19 01:25:05;;;;;;;0.20;0.20;;;;;;;5.52;100.00;102110.22;4985338;28;20049;-86
2021/12/19 01:27:39;;;;;;;0.30;0.30;;;;;;;5.51;100.00;102116.69;4982779;28;20050;-84
2021/12/19 01:30:13;;;;;;;0.22;0.22;;;;;;;5.47;100.00;102104.66;5018159;28;20057;-85
2021/12/19 01:32:44;;;;;;;0.22;0.22;;;;;;;5.51;100.00;102096.94;4991596;28;20533;-85
2021/12/19 01:35:20;;;;;;;0.22;0.22;;;;;;;5.64;100.00;102105.00;4987500;28;20055;-86
2021/12/19 01:37:54;;;;;;;0.20;0.20;;;;;;;5.57;100.00;102099.63;4984461;28;20529;-86
2021/12/19 01:40:28;;;;;;;0.30;0.30;;;;;;;5.57;100.00;102099.63;4986284;28;20055;-85
2021/12/19 01:43:02;;;;;;;0.30;0.30;;;;;;;5.56;100.00;102091.75;4980161;28;20066;-85
2021/12/19 01:45:33;;;;;;;0.20;0.20;;;;;;;5.56;100.00;102084.47;4977021;28;20065;-84
2021/12/19 01:48:10;;;;;;;0.30;0.30;;;;;;;5.51;100.00;102070.78;4979835;28;20057;-85
2021/12/19 01:50:40;;;;;;;0.20;0.20;;;;;;;5.67;100.00;102074.06;4990471;28;20058;-86
2021/12/19 01:53:14;;;;;;;0.30;0.30;;;;;;;5.51;100.00;102051.03;4996428;28;20049;-85
2021/12/19 01:55:44;;;;;;;0.30;0.30;;;;;;;5.67;100.00;102064.06;4990779;28;20112;-86
2021/12/19 01:58:13;;;;;;;0.30;0.30;;;;;;;5.54;100.00;102058.72;4992838;28;20054;-86
2021/12/19 02:00:44;;;;;;;0.30;0.30;;;;;;;5.58;100.00;102066.19;4994636;28;20042;-87
2021/12/19 02:03:20;;;;;;;0.30;0.30;;;;;;;5.63;100.00;102068.25;4994340;28;20046;-84
2021/12/19 02:05:54;;;;;;;0.28;0.28;;;;;;;5.60;100.00;102069.50;4992915;28;20055;-86
2021/12/19 02:08:22;;;;;;;0.30;0.30;;;;;;;5.64;100.00;102060.97;4993495;28;20046;-85
2021/12/19 02:10:50;;;;;;;0.30;0.30;;;;;;;5.62;100.00;102072.81;4995871;28;20054;-86
2021/12/19 02:13:24;;;;;;;0.30;0.30;;;;;;;5.61;100.00;102073.84;4994458;28;20061;-86
2021/12/19 02:15:52;;;;;;;0.30;0.30;;;;;;;5.62;100.00;102064.72;4994496;28;20057;-85
2021/12/19 02:18:22;;;;;;;0.30;0.30;;;;;;;5.59;100.00;102056.19;5002812;28;20045;-86
2021/12/19 02:20:54;;;;;;;0.30;0.30;;;;;;;5.56;100.00;102062.84;4995710;28;20591;-85
2021/12/19 02:23:29;;;;;;;0.30;0.30;;;;;;;5.67;100.00;102074.88;4996874;28;20061;-86
2021/12/19 02:26:02;;;;;;;0.30;0.30;;;;;;;5.64;100.00;102088.81;4998404;28;20054;-85
2021/12/19 02:28:30;;;;;;;0.22;0.22;;;;;;;5.64;100.00;102086.09;4994700;28;20053;-86
2021/12/19 02:31:04;;;;;;;0.20;0.20;;;;;;;5.67;100.00;102087.56;4994917;28;20081;-87
2021/12/19 02:33:36;;;;;;;0.30;0.30;;;;;;;5.64;100.00;102066.38;4993970;28;20676;-87
2021/12/19 02:36:21;;;;;;;0.30;0.30;;;;;;;5.58;100.00;102062.66;4994554;28;20039;-84
2021/12/19 02:50:18;;;;;;;0.30;0.30;;;;;;;5.65;100.00;102060.75;4996517;28;20855;-88
2021/12/19 02:52:48;;;;;;;0.32;0.32;;;;;;;5.66;100.00;102035.41;4998517;28;20061;-85
2021/12/19 02:55:22;;;;;;;0.30;0.30;;;;;;;5.66;100.00;102050.78;4992869;28;20042;-86
2021/12/19 02:57:51;;;;;;;0.30;0.30;;;;;;;5.66;100.00;102078.59;4998126;28;20046;-84
2021/12/19 03:00:23;;;;;;;0.30;0.30;;;;;;;5.65;100.00;102082.38;4988490;28;20065;-86
2021/12/19 03:02:52;;;;;;;0.30;0.30;;;;;;;5.59;100.00;102054.34;4981632;28;20054;-85
2021/12/19 03:05:25;;;;;;;0.30;0.30;;;;;;;5.72;100.00;102066.97;4992287;28;20049;-84
2021/12/19 03:07:56;;;;;;;0.20;0.20;;;;;;;5.68;100.00;102081.94;4992327;28;20478;-86
2021/12/19 03:10:56;;;;;;;0.30;0.30;;;;;;;5.67;100.00;102071.34;4988496;28;20043;-86
2021/12/19 03:13:35;;;;;;;0.30;0.30;;;;;;;5.67;100.00;102060.56;4990827;28;20046;-85
2021/12/19 03:18:55;;;;;;;0.30;0.30;;;;;;;5.74;100.00;102053.25;4993238;28;20050;-85
2021/12/19 03:21:25;;;;;;;0.30;0.30;;;;;;;5.65;100.00;102051.81;4990682;28;20109;-86
2021/12/19 03:23:59;;;;;;;0.30;0.30;;;;;;;5.64;100.00;102063.69;4994091;28;20054;-84
2021/12/19 03:26:27;;;;;;;0.30;0.30;;;;;;;5.66;100.00;102062.41;4987886;28;20619;-85
2021/12/19 03:29:00;;;;;;;0.20;0.20;;;;;;;5.65;100.00;102052.66;4995200;28;20050;-87
2021/12/19 03:31:34;;;;;;;0.20;0.20;;;;;;;5.72;100.00;102058.06;4998430;28;20046;-86
2021/12/19 03:34:07;;;;;;;0.20;0.20;;;;;;;5.62;100.00;102050.38;4993100;28;20061;-87
2021/12/19 03:36:35;;;;;;;0.30;0.30;;;;;;;5.67;100.00;102055.16;4997645;28;20494;-86
2021/12/19 03:39:25;;;;;;;0.20;0.20;;;;;;;5.61;100.00;102046.03;4993139;28;20042;-86
2021/12/19 03:41:58;;;;;;;0.30;0.30;;;;;;;5.62;100.00;102059.31;4996241;28;20034;-85
2021/12/19 03:44:31;;;;;;;0.30;0.30;;;;;;;5.63;100.00;102076.34;4997580;28;20057;-85
2021/12/19 03:47:05;;;;;;;0.30;0.30;;;;;;;5.63;100.00;102076.34;4992090;28;20443;-87
2021/12/19 03:49:38;;;;;;;0.30;0.30;;;;;;;5.56;100.00;102056.63;4981546;28;20058;-85
2021/12/19 03:52:11;;;;;;;0.20;0.20;;;;;;;5.58;100.00;102054.56;4997000;28;20053;-87
2021/12/19 03:54:41;;;;;;;0.20;0.20;;;;;;;5.45;100.00;102045.47;4989198;28;20732;-86
2021/12/19 03:57:14;;;;;;;0.20;0.20;;;;;;;5.42;100.00;102034.25;5008721;28;20069;-86
2021/12/19 03:59:49;;;;;;;0.30;0.30;;;;;;;5.41;100.00;102019.06;4996616;28;20046;-86
2021/12/19 04:02:26;;;;;;;0.20;0.20;;;;;;;5.39;100.00;102005.78;4988398;28;20042;-86
2021/12/19 04:05:00;;;;;;;0.30;0.30;;;;;;;5.40;100.00;102012.00;4994671;28;20053;-85
2021/12/19 04:07:34;;;;;;;0.20;0.20;;;;;;;5.38;100.00;102019.50;4989078;28;20508;-86
2021/12/19 04:10:04;;;;;;;0.22;0.22;;;;;;;5.36;100.00;102013.47;4989111;28;20071;-86
2021/12/19 04:12:37;;;;;;;0.20;0.20;;;;;;;5.31;100.00;102007.91;4983188;28;20061;-84
2021/12/19 04:15:11;;;;;;;0.22;0.22;;;;;;;5.25;100.00;101993.38;4989280;28;20073;-86
2021/12/19 04:17:44;;;;;;;0.20;0.20;;;;;;;5.19;100.00;101972.63;4994530;28;20050;-86
2021/12/19 04:20:15;;;;;;;0.25;0.25;;;;;;;5.26;100.00;101976.13;5023005;28;20050;-87
2021/12/19 04:22:50;;;;;;;0.22;0.22;;;;;;;5.22;100.00;101980.28;4994301;28;20058;-86
2021/12/19 04:25:25;;;;;;;0.20;0.20;;;;;;;5.19;100.00;101986.97;4994446;28;20053;-86
2021/12/19 04:27:53;;;;;;;0.30;0.30;;;;;;;5.14;100.00;101965.19;4993581;28;20046;-85
2021/12/19 04:30:26;;;;;;;0.20;0.20;;;;;;;5.18;100.00;101984.47;4990739;28;20499;-85
2021/12/19 04:33:02;;;;;;;0.20;0.20;;;;;;;5.19;100.00;101994.22;4994376;28;20054;-85
2021/12/19 04:35:39;;;;;;;0.30;0.30;;;;;;;5.23;100.00;102003.56;4986140;28;20058;-86
2021/12/19 04:55:41;;;;;;;0.20;0.20;;;;;;;5.27;100.00;101959.75;5006768;28;20061;-85
2021/12/19 04:58:33;;;;;;;0.20;0.20;;;;;;;5.25;100.00;101966.41;4991676;28;20054;-86
2021/12/19 05:01:28;;;;;;;0.20;0.20;;;;;;;5.26;100.00;101957.22;4986936;28;20046;-86
2021/12/19 05:04:08;;;;;;;0.20;0.20;;;;;;;5.28;100.00;101947.88;5000015;28;20080;-84
2021/12/19 05:14:02;;;;;;;0.20;0.20;;;;;;;5.25;100.00;101942.09;4996850;28;20375;-86
2021/12/19 05:15:32;;;;;;;0.20;0.20;;;;;;;5.30;100.00;101939.56;4993728;28;20042;-86
2021/12/19 05:18:08;;;;;;;0.20;0.20;;;;;;;5.34;100.00;101930.00;5005510;28;20050;-86
2021/12/19 05:20:51;;;;;;;0.20;0.20;;;;;;;5.21;100.00;101909.31;4992939;28;20399;-86
2021/12/19 05:23:34;;;;;;;0.20;0.20;;;;;;;5.27;100.00;101911.16;4988684;28;20053;-85
2021/12/19 05:26:07;;;;;;;0.20;0.20;;;;;;;5.30;100.00;101931.47;4993701;28;20050;-85
2021/12/19 05:28:41;;;;;;;0.30;0.30;;;;;;;5.32;100.00;101915.91;4996084;28;20070;-86
2021/12/19 05:31:11;;;;;;;0.20;0.20;;;;;;;5.38;100.00;101925.03;5000016;28;20049;-85
2021/12/19 05:33:45;;;;;;;0.20;0.20;;;;;;;5.34;100.00;101911.09;5001015;28;20057;-85
2021/12/19 05:47:34;;;;;;;0.28;0.28;;;;;;;5.42;100.00;101891.16;4978492;28;20362;-86
2021/12/19 05:50:08;;;;;;;0.20;0.20;;;;;;;5.39;100.00;101899.69;4995159;28;20046;-86
2021/12/19 05:52:42;;;;;;;0.20;0.20;;;;;;;5.39;100.00;101900.50;5006005;28;20049;-85
2021/12/19 05:55:16;;;;;;;0.20;0.20;;;;;;;5.43;100.00;101900.91;5013267;28;20073;-85
2021/12/19 05:57:49;;;;;;;0.30;0.30;;;;;;;5.44;100.00;101897.16;4998590;28;20414;-86
2021/12/19 06:00:23;;;;;;;0.28;0.28;;;;;;;5.45;100.00;101902.38;4994662;28;20053;-86
2021/12/19 06:02:57;;;;;;;0.38;0.30;;;;;;;5.42;100.00;101883.06;4993719;28;20062;-85
2021/12/19 06:05:31;;;;;;;0.28;0.28;;;;;;;5.48;100.00;101892.16;4994556;28;20053;-85
2021/12/19 06:08:04;;;;;;;0.20;0.20;;;;;;;5.55;100.00;101885.69;4994304;28;20053;-85
2021/12/19 06:10:38;;;;;;;0.20;0.20;;;;;;;5.55;100.00;101884.84;4998699;28;20046;-85
2021/12/19 06:13:11;;;;;;;0.45;0.30;;;;;;;5.49;100.00;101875.75;4995390;28;20402;-85
2021/12/19 06:15:44;;;;;;;0.30;0.30;;;;;;;5.51;100.00;101870.13;4995369;28;20054;-86
2021/12/19 06:18:19;;;;;;;0.30;0.30;;;;;;;5.50;100.00;101874.69;4992955;28;20057;-85
2021/12/19 06:20:47;;;;;;;0.30;0.30;;;;;;;5.43;100.00;101861.25;4998659;28;20046;-84
2021/12/19 06:23:20;;;;;;;0.20;0.20;;;;;;;5.49;100.00;101877.63;4996081;28;20399;-85
2021/12/19 06:25:53;;;;;;;0.30;0.30;;;;;;;5.55;100.00;101883.00;4994354;28;20041;-85
2021/12/19 06:28:22;;;;;;;0.20;0.20;;;;;;;5.56;100.00;101875.72;4995851;28;20065;-86
2021/12/19 06:30:56;;;;;;;0.20;0.20;;;;;;;5.66;100.00;101883.34;4992926;28;20051;-84
2021/12/19 06:33:25;;;;;;;0.30;0.30;;;;;;;5.58;100.00;101879.03;4996220;28;20045;-85
2021/12/19 06:35:58;;;;;;;0.20;0.20;;;;;;;5.59;100.00;101880.66;4995186;28;20054;-84
2021/12/19 06:38:32;;;;;;;0.30;0.30;;;;;;;5.60;100.00;101887.72;4992710;28;20054;-85
2021/12/19 06:41:05;;;;;;;0.30;0.30;;;;;;;5.58;100.00;101879.84;4995586;28;20041;-86
2021/12/19 06:43:38;;;;;;;0.20;0.20;;;;;;;5.65;100.00;101865.47;5022686;28;20050;-84
2021/12/19 06:46:11;;;;;;;0.20;0.20;;;;;;;5.65;100.00;101873.56;4993123;28;20046;-85
2021/12/19 06:48:46;;;;;;;0.30;0.30;;;;;;;5.62;100.00;101869.41;5000219;28;20050;-85
2021/12/19 06:51:19;;;;;;;0.30;0.30;;;;;;;5.71;100.00;101873.53;4995553;28;20038;-86
2021/12/19 06:53:52;;;;;;;0.25;0.25;;;;;;;5.73;100.00;101871.44;4994593;28;20042;-85
2021/12/19 06:56:26;;;;;;;0.28;0.28;;;;;;;5.63;100.00;101871.09;4993277;28;20042;-85
2021/12/19 06:58:59;;;;;;;0.20;0.20;;;;;;;5.68;100.00;101873.97;4995595;28;20050;-85
2021/12/19 07:01:32;;;;;;;0.30;0.30;;;;;;;5.63;100.00;101871.09;4994922;28;20080;-85
2021/12/19 07:04:02;;;;;;;0.30;0.30;;;;;;;5.66;100.00;101861.72;4994245;28;20053;-85
2021/12/19 07:06:35;;;;;;;0.15;0.15;;;;;;;5.67;100.00;101860.69;4990751;28;20073;-85
2021/12/19 07:09:08;;;;;;;0.30;0.30;;;;;;;5.66;100.00;101851.75;5003377;28;20045;-85
2021/12/19 07:11:42;;;;;;;0.40;0.40;;;;;;;5.57;100.00;101843.06;4997034;28;20061;-85
2021/12/19 07:14:16;;;;;;;0.20;0.20;;;;;;;5.65;100.00;101857.38;4997117;28;20049;-85
2021/12/19 07:16:49;;;;;;;0.30;0.30;;;;;;;5.68;100.00;101840.75;4994951;28;20057;-85
2021/12/19 07:19:24;;;;;;;0.30;0.30;;;;;;;5.68;100.00;101846.97;4996484;28;20050;-86
2021/12/19 07:21:57;;;;;;;0.30;0.30;;;;;;;5.73;100.00;101840.91;4991465;28;20061;-85
2021/12/19 07:24:25;;;;;;;0.20;0.20;;;;;;;5.75;100.00;101836.13;4991458;28;20051;-85
2021/12/19 07:26:53;;;;;;;0.20;0.20;;;;;;;5.69;100.00;101839.69;4995634;28;20050;-86
2021/12/19 07:29:26;;;;;;;0.30;0.30;;;;;;;5.72;100.00;101831.97;4991648;28;20399;-84
2021/12/19 07:32:00;;;;;;;0.30;0.30;;;;;;;5.68;100.00;101825.34;4993414;28;20479;-85
2021/12/19 07:34:32;;;;;;;0.22;0.22;;;;;;;5.78;100.00;101828.38;5005851;28;20145;-84
2021/12/19 07:37:05;;;;;;;0.30;0.30;;;;;;;5.74;100.00;101835.28;4993498;28;20073;-84
2021/12/19 07:39:51;;;;;;;0.30;0.30;;;;;;;5.77;100.00;101836.72;4992138;28;20525;-84
2021/12/19 07:42:19;;;;;;;0.30;0.30;;;;;;;5.81;100.00;101842.50;4991587;28;20038;-83
2021/12/19 07:44:52;;;;;;;0.13;0.13;;;;;;;5.83;100.00;101832.31;4993365;28;20042;-85
2021/12/19 07:47:26;;;;;;;0.20;0.20;;;;;;;5.81;100.00;101829.00;4991622;28;20415;-86
2021/12/19 07:50:00;;;;;;;0.30;0.30;;;;;;;5.81;100.00;101818.19;4991233;28;20042;-85
2021/12/19 07:52:29;;;;;;;0.30;0.30;;;;;;;5.79;100.00;101810.31;4994657;28;20058;-85
2021/12/19 07:55:02;;;;;;;0.25;0.25;;;;;;;5.84;100.00;101824.00;4991105;28;20057;-84
2021/12/19 07:57:36;;;;;;;0.20;0.20;;;;;;;5.83;100.00;101813.38;4996148;28;20678;-84
2021/12/19 08:00:06;;;;;;;0.30;0.30;;;;;;;5.86;100.00;101819.19;4986257;28;20050;-85
2021/12/19 08:02:39;;;;;;;0.40;0.40;;;;;;;5.83;100.00;101814.25;4986579;28;20061;-85
2021/12/19 08:05:14;;;;;;;0.30;0.30;;;;;;;5.90;100.00;101817.69;4989477;28;20046;-84
2021/12/19 08:07:46;;;;;;;0.28;0.28;;;;;;;5.89;100.00;101809.81;4996389;28;20057;-83
2021/12/19 08:13:07;;;;;;;0.32;0.32;;;;;;;5.90;100.00;101806.91;4990969;28;20300;-86
2021/12/19 08:15:37;;;;;;;0.20;0.20;;;;;;;5.92;100.00;101812.06;4997046;28;20057;-83
2021/12/19 08:18:11;;;;;;;0.22;0.22;;;;;;;5.95;100.00;101804.38;4993875;28;20041;-85
2021/12/19 08:20:45;;;;;;;0.30;0.30;;;;;;;6.00;100.00;101805.63;4995111;28;20415;-86
2021/12/19 08:23:18;;;;;;;0.30;0.30;;;;;;;5.98;100.00;101805.00;4993205;28;20046;-84
2021/12/19 08:25:52;;;;;;;0.30;0.30;;;;;;;5.95;100.00;101798.97;4991864;28;20063;-86
2021/12/19 08:28:20;;;;;;;0.30;0.30;;;;;;;5.86;100.00;101777.84;4994105;28;20046;-86
2021/12/19 08:30:48;;;;;;;0.40;0.40;;;;;;;6.01;100.00;101801.84;4999275;28;20065;-85
2021/12/19 08:33:22;;;;;;;0.22;0.22;;;;;;;6.01;100.00;101799.13;5011170;28;20548;-83
2021/12/19 08:35:57;;;;;;;0.20;0.20;;;;;;;6.02;100.00;101801.66;4996554;28;20054;-87
2021/12/19 08:38:30;;;;;;;0.30;0.30;;;;;;;5.99;100.00;101793.97;5010984;28;20410;-84
2021/12/19 08:41:03;;;;;;;0.20;0.20;;;;;;;6.04;100.00;101788.72;5011353;28;20050;-85
2021/12/19 08:43:37;;;;;;;0.30;0.30;;;;;;;6.00;100.00;101771.28;4995204;28;20046;-84
2021/12/19 08:46:11;;;;;;;0.20;0.20;;;;;;;5.98;100.00;101784.22;5023310;28;20050;-85
2021/12/19 08:48:44;;;;;;;0.30;0.30;;;;;;;6.06;100.00;101785.78;4988968;28;20054;-83
2021/12/19 08:51:19;;;;;;;0.20;0.20;;;;;;;6.06;100.00;101772.28;4990516;28;20050;-86
2021/12/19 08:53:52;;;;;;;0.30;0.30;;;;;;;6.09;100.00;101782.63;4988444;28;20507;-87
2021/12/19 08:56:20;;;;;;;0.20;0.20;;;;;;;6.07;100.00;101790.97;4991769;28;20062;-87
2021/12/19 08:58:54;;;;;;;0.20;0.20;;;;;;;6.08;100.00;101783.72;4995427;28;20058;-85
2021/12/19 09:01:28;;;;;;;0.28;0.28;;;;;;;6.12;100.00;101779.50;4994600;28;20147;-84
2021/12/19 09:04:01;;;;;;;0.25;0.25;;;;;;;6.10;100.00;101787.84;4994509;28;20046;-84
2021/12/19 09:06:34;;;;;;;0.20;0.20;;;;;;;6.11;100.00;101769.75;4993948;28;20058;-83
2021/12/19 09:09:02;;;;;;;0.30;0.30;;;;;;;6.12;100.00;101783.03;5022740;28;20050;-83
2021/12/19 09:11:30;;;;;;;0.30;0.30;;;;;;;6.12;100.00;101764.13;4992066;28;20053;-83
2021/12/19 09:13:59;;;;;;;0.30;0.30;;;;;;;6.22;100.00;101779.00;4991956;28;20047;-82
2021/12/19 09:16:33;;;;;;;0.40;0.40;;;;;;;6.14;100.00;101780.09;4976288;28;20077;-82
2021/12/19 09:19:06;;;;;;;0.30;0.30;;;;;;;5.99;100.00;101758.81;4992178;28;20059;-82
2021/12/19 09:21:42;;;;;;;0.20;0.20;;;;;;;6.21;100.00;101785.44;4976286;28;20055;-82
2021/12/19 09:24:10;;;;;;;0.20;0.20;;;;;;;6.23;100.00;101778.78;4988669;28;20058;-83
2021/12/19 09:26:39;;;;;;;0.30;0.30;;;;;;;6.32;100.00;101776.59;5024049;28;20050;-83
2021/12/19 09:29:12;;;;;;;0.20;0.20;;;;;;;6.29;100.00;101785.16;4992891;28;20046;-83
2021/12/19 09:31:46;;;;;;;0.20;0.20;;;;;;;6.29;100.00;101785.16;4990341;28;20046;-82
2021/12/19 09:34:19;;;;;;;0.30;0.30;;;;;;;6.28;100.00;101780.78;4994896;28;20038;-83
2021/12/19 09:36:54;;;;;;;0.20;0.20;;;;;;;6.34;100.00;101784.47;4998390;28;20089;-83
2021/12/19 09:39:24;;;;;;;0.20;0.20;;;;;;;6.35;100.00;101783.44;4992010;28;20042;-84
2021/12/19 09:42:08;;;;;;;0.20;0.20;;;;;;;6.39;100.00;101780.03;4992145;28;20042;-82
2021/12/19 09:44:42;;;;;;;0.20;0.20;;;;;;;6.42;100.00;101781.47;4991348;28;20057;-85
2021/12/19 09:47:15;;;;;;;0.20;0.20;;;;;;;6.44;100.00;101774.78;4987810;28;20065;-84
2021/12/19 09:49:44;;;;;;;0.20;0.20;;;;;;;6.40;100.00;101778.19;4990669;28;20479;-86
2021/12/19 09:52:18;;;;;;;0.30;0.30;;;;;;;6.41;100.00;101777.97;4992162;28;20499;-85
2021/12/19 09:54:52;;;;;;;0.20;0.20;;;;;;;6.41;100.00;101766.34;4989955;28;20388;-84
2021/12/19 09:57:25;;;;;;;0.20;0.20;;;;;;;6.42;100.00;101768.81;4990063;28;20065;-82
2021/12/19 10:00:00;;;;;;;0.28;0.28;;;;;;;6.47;100.00;101766.22;4992960;28;20078;-83
2021/12/19 10:02:28;;;;;;;0.20;0.20;;;;;;;6.49;100.00;101770.59;4988693;28;20067;-84
2021/12/19 10:05:15;;;;;;;0.30;0.30;;;;;;;6.28;100.00;101721.31;4987867;28;20058;-84
2021/12/19 10:07:50;;;;;;;0.30;0.30;;;;;;;6.53;100.00;101751.00;4979656;28;20061;-84
2021/12/19 10:10:42;;;;;;;0.20;0.20;;;;;;;6.46;100.00;101747.53;4977884;28;20097;-83
2021/12/19 10:13:15;;;;;;;0.30;0.30;;;;;;;6.55;100.00;101745.38;4980330;28;20050;-84
2021/12/19 10:15:48;;;;;;;0.30;0.30;;;;;;;6.51;100.00;101715.22;4975127;28;20051;-84
2021/12/19 10:18:22;;;;;;;0.30;0.30;;;;;;;6.57;100.00;101722.44;4979256;28;20062;-83
2021/12/19 10:20:58;;;;;;;0.20;0.20;;;;;;;6.46;100.00;101713.22;4980588;28;20046;-82
2021/12/19 10:23:37;;;;;;;0.20;0.20;;;;;;;6.53;100.00;101707.72;4980431;28;20073;-86
2021/12/19 10:26:14;;;;;;;0.30;0.30;;;;;;;6.57;100.00;101710.78;4977085;28;20057;-85
2021/12/19 10:28:51;;;;;;;0.30;0.30;;;;;;;6.62;100.00;101711.75;4980931;28;20058;-83
2021/12/19 10:31:20;;;;;;;0.20;0.20;;;;;;;6.61;100.00;101712.00;4983468;28;20415;-84
2021/12/19 10:33:49;;;;;;;0.25;0.25;;;;;;;6.66;100.00;101717.53;4981799;28;20505;-82
2021/12/19 10:36:19;;;;;;;0.22;0.22;;;;;;;6.63;100.00;101716.13;5010178;28;20057;-84
2021/12/19 10:38:50;;;;;;;0.25;0.25;;;;;;;6.66;100.00;101703.19;4968710;28;20065;-85
2021/12/19 10:41:32;;;;;;;0.20;0.20;;;;;;;6.70;100.00;101705.22;4975106;28;20058;-85
2021/12/19 10:44:10;;;;;;;0.30;0.30;;;;;;;6.60;100.00;101688.69;4973472;28;20058;-85
2021/12/19 10:46:44;;;;;;;0.30;0.30;;;;;;;6.72;100.00;101694.97;4973880;28;20058;-84
2021/12/19 10:49:23;;;;;;;0.30;0.30;;;;;;;6.71;100.00;101687.09;4970490;28;20058;-85
2021/12/19 10:52:01;;;;;;;0.30;0.30;;;;;;;6.64;100.00;101679.06;4963885;28;20714;-85
2021/12/19 10:54:36;;;;;;;0.20;0.20;;;;;;;6.66;100.00;101690.50;4966293;28;20086;-84
2021/12/19 10:57:12;;;;;;;0.30;0.30;;;;;;;6.69;100.00;101687.31;4978026;28;20069;-85
2021/12/19 10:59:45;;;;;;;0.20;0.20;;;;;;;6.70;100.00;101680.88;4984406;28;20050;-82
2021/12/19 11:02:14;;;;;;;0.25;0.25;;;;;;;6.74;100.00;101682.06;4986046;28;20092;-85
2021/12/19 11:04:47;;;;;;;0.30;0.30;;;;;;;6.79;100.00;101689.47;4979446;28;20050;-84
2021/12/19 11:07:23;;;;;;;0.20;0.20;;;;;;;6.72;100.00;101669.81;4976468;28;20046;-82
2021/12/19 11:09:57;;;;;;;0.30;0.30;;;;;;;6.76;100.00;101688.06;4971250;28;20114;-83
2021/12/19 11:12:31;;;;;;;0.30;0.30;;;;;;;6.72;100.00;101670.63;4975465;28;20059;-83
2021/12/19 11:15:05;;;;;;;0.30;0.30;;;;;;;6.78;100.00;101669.72;4975950;28;20442;-83
2021/12/19 11:17:38;;;;;;;0.20;0.20;;;;;;;6.79;100.00;101663.28;4978246;28;20165;-85
2021/12/19 11:20:11;;;;;;;0.20;0.20;;;;;;;6.76;100.00;101663.72;4977802;28;20058;-84
2021/12/19 11:22:45;;;;;;;0.20;0.20;;;;;;;6.79;100.00;101665.97;4977234;28;20062;-84
2021/12/19 11:25:14;;;;;;;0.30;0.30;;;;;;;6.79;100.00;101657.84;4976594;28;20790;-84
2021/12/19 11:27:48;;;;;;;0.30;0.30;;;;;;;6.76;100.00;101657.47;4977367;28;20050;-84
2021/12/19 11:30:21;;;;;;;0.30;0.30;;;;;;;6.82;100.00;101653.84;4975112;28;20077;-83
2021/12/19 11:33:04;;;;;;;0.20;0.20;;;;;;;6.82;100.00;101661.97;4978877;28;20066;-84
2021/12/19 11:35:41;;;;;;;0.30;0.30;;;;;;;6.72;100.00;101627.34;4974264;28;20054;-85
2021/12/19 11:38:12;;;;;;;0.22;0.22;;;;;;;6.77;100.00;101621.25;4978890;28;20046;-85
2021/12/19 11:40:47;;;;;;;0.38;0.30;;;;;;;6.77;100.00;101632.09;4974803;28;20050;-83
2021/12/19 11:43:20;;;;;;;0.20;0.20;;;;;;;6.94;100.00;101633.06;4977517;28;20470;-82
2021/12/19 11:46:00;;;;;;;0.28;0.28;;;;;;;6.90;100.00;101631.06;4972446;28;20050;-84
2021/12/19 11:48:35;;;;;;;0.30;0.30;;;;;;;6.88;100.00;101627.78;4973848;28;20061;-84
2021/12/19 11:51:17;;;;;;;0.20;0.20;;;;;;;6.90;100.00;101631.06;4979569;28;20050;-84
2021/12/19 11:53:50;;;;;;;0.30;0.30;;;;;;;6.84;100.00;101634.69;4973813;28;20053;-83
2021/12/19 11:56:24;;;;;;;0.35;0.35;;;;;;;6.87;100.00;101612.59;4975513;28;20530;-84
2021/12/19 11:58:55;;;;;;;0.32;0.25;;;;;;;6.87;100.00;101602.56;4967691;28;20735;-82
2021/12/19 12:01:30;;;;;;;0.22;0.22;;;;;;;6.80;100.00;101593.75;4963252;28;20058;-83
2021/12/19 12:04:00;;;;;;;0.30;0.30;;;;;;;6.86;100.00;101600.91;4963873;28;20062;-84
2021/12/19 12:06:36;;;;;;;0.32;0.30;;;;;;;6.89;100.00;101586.09;4967838;28;20510;-83
2021/12/19 12:09:21;;;;;;;0.30;0.30;;;;;;;6.94;100.00;101591.66;4963799;28;20058;-84
2021/12/19 12:12:13;;;;;;;0.30;0.30;;;;;;;6.93;100.00;101593.53;4968952;28;20046;-84
2021/12/19 12:14:55;;;;;;;0.30;0.30;;;;;;;6.95;100.00;101583.28;4964757;28;20061;-84
2021/12/19 12:17:32;;;;;;;0.35;0.30;;;;;;;6.96;100.00;101573.28;4972080;28;20199;-83
2021/12/19 12:20:13;;;;;;;0.30;0.30;;;;;;;6.95;100.00;101575.19;4966260;28;20084;-83
2021/12/19 12:22:51;;;;;;;0.30;0.30;;;;;;;7.03;100.00;101565.06;4974309;28;21257;-82
2021/12/19 12:25:33;;;;;;;0.20;0.20;;;;;;;6.86;100.00;101559.50;4970962;28;20054;-83
2021/12/19 12:28:07;;;;;;;0.30;0.30;;;;;;;6.94;100.00;101564.59;4969273;28;20050;-82
2021/12/19 12:30:45;;;;;;;0.20;0.20;;;;;;;6.93;100.00;101558.38;4970402;28;20046;-82
2021/12/19 12:33:15;;;;;;;0.30;0.30;;;;;;;6.94;100.00;101549.16;4974291;28;20073;-84
2021/12/19 12:35:52;;;;;;;0.30;0.30;;;;;;;6.92;100.00;101555.88;4973709;28;20050;-83
2021/12/19 12:38:21;;;;;;;0.20;0.20;;;;;;;6.97;100.00;101570.38;4981460;28;20517;-83
2021/12/19 12:40:56;;;;;;;0.32;0.32;;;;;;;6.88;100.00;101563.63;4979635;28;20050;-82
2021/12/19 12:43:33;;;;;;;0.20;0.20;;;;;;;6.96;100.00;101548.94;4969865;28;20054;-82
2021/12/19 12:46:09;;;;;;;0.40;0.40;;;;;;;6.85;100.00;101553.28;4965113;28;20422;-81
2021/12/19 12:48:41;;;;;;;0.40;0.40;;;;;;;6.97;100.00;101561.41;4966359;28;20054;-81